createdAt,value
2023-04-28T00:01:42.692Z,12.77
2023-04-28T00:04:09.975Z,12.17
2023-04-28T00:06:37.710Z,11.97
2023-04-28T00:09:04.781Z,10.50
2023-04-28T00:11:31.802Z,10.10
2023-04-28T00:13:58.843Z,9.00
2023-04-28T00:16:25.889Z,11.13
2023-04-28T00:18:53.249Z,10.83
2023-04-28T00:21:20.288Z,9.83
2023-04-28T00:23:47.232Z,10.47
2023-04-28T00:26:14.535Z,9.93
2023-04-28T00:28:41.631Z,10.30
2023-04-28T00:31:15.238Z,9.97
2023-04-28T00:33:42.562Z,9.23
2023-04-28T00:36:10.237Z,9.53
2023-04-28T00:38:37.402Z,9.80
2023-04-28T00:41:05.008Z,10.87
2023-04-28T00:43:32.191Z,10.53
2023-04-28T00:45:59.533Z,11.73
2023-04-28T00:48:27.002Z,10.57
2023-04-28T00:50:54.084Z,10.07
2023-04-28T00:53:21.785Z,10.37
2023-04-28T00:55:49.712Z,9.83
2023-04-28T00:58:16.898Z,9.83
2023-04-28T01:00:43.874Z,9.63
2023-04-28T01:03:11.379Z,10.50
2023-04-28T01:05:38.673Z,10.03
2023-04-28T01:08:05.743Z,9.67
2023-04-28T01:10:33.342Z,9.53
2023-04-28T01:13:00.345Z,10.27
2023-04-28T01:15:27.778Z,9.30
2023-04-28T01:17:55.364Z,10.87
2023-04-28T01:20:22.453Z,8.70
2023-04-28T01:22:49.504Z,8.87
2023-04-28T01:25:16.466Z,9.00
2023-04-28T01:27:43.579Z,11.33
2023-04-28T01:30:10.894Z,13.30
2023-04-28T01:32:37.719Z,12.50
2023-04-28T01:35:04.863Z,12.73
2023-04-28T01:37:32.025Z,12.70
2023-04-28T01:39:59.096Z,10.60
2023-04-28T01:42:26.336Z,11.90
2023-04-28T01:44:53.254Z,10.67
2023-04-28T01:47:20.896Z,10.17
2023-04-28T01:49:48.742Z,10.47
2023-04-28T01:52:16.166Z,10.50
2023-04-28T01:54:43.182Z,9.03
2023-04-28T01:57:10.338Z,10.23
2023-04-28T01:59:37.032Z,12.63
2023-04-28T02:02:04.134Z,16.40
2023-04-28T02:04:31.239Z,11.43
2023-04-28T02:06:59.107Z,10.47
2023-04-28T02:09:26.287Z,9.57
2023-04-28T02:11:53.372Z,10.40
2023-04-28T02:14:20.608Z,9.37
2023-04-28T02:16:47.582Z,9.47
2023-04-28T02:19:15.055Z,9.87
2023-04-28T02:21:42.248Z,16.97
2023-04-28T02:24:09.394Z,14.50
2023-04-28T02:26:36.422Z,14.60
2023-04-28T02:29:04.592Z,13.87
2023-04-28T02:31:32.113Z,14.77
2023-04-28T02:33:58.743Z,12.10
2023-04-28T02:36:25.641Z,12.23
2023-04-28T02:38:52.807Z,13.20
2023-04-28T02:41:19.855Z,12.20
2023-04-28T02:43:46.920Z,11.73
2023-04-28T02:46:13.950Z,12.40
2023-04-28T02:48:41.919Z,10.13
2023-04-28T02:51:09.015Z,11.13
2023-04-28T02:53:36.189Z,9.80
2023-04-28T02:56:05.013Z,11.40
2023-04-28T02:58:32.175Z,10.00
2023-04-28T03:00:59.299Z,10.13
2023-04-28T03:03:26.869Z,9.17
2023-04-28T03:05:53.717Z,9.43
2023-04-28T03:08:21.436Z,9.00
2023-04-28T03:10:48.531Z,8.23
2023-04-28T03:13:15.486Z,9.00
2023-04-28T03:15:42.498Z,9.50
2023-04-28T03:18:09.202Z,9.47
2023-04-28T03:20:36.289Z,13.57
2023-04-28T03:23:03.292Z,15.07
2023-04-28T03:25:33.009Z,11.57
2023-04-28T03:28:00.117Z,10.77
2023-04-28T03:30:26.881Z,10.43
2023-04-28T03:32:54.273Z,12.00
2023-04-28T03:35:20.821Z,16.07
2023-04-28T03:37:47.590Z,16.23
2023-04-28T03:40:14.234Z,14.83
2023-04-28T03:42:40.767Z,13.73
2023-04-28T03:45:07.902Z,11.90
2023-04-28T03:47:34.982Z,12.27
2023-04-28T03:50:01.622Z,12.13
2023-04-28T03:52:28.733Z,14.47
2023-04-28T03:54:55.407Z,13.43
2023-04-28T03:57:23.484Z,10.93
2023-04-28T03:59:50.439Z,12.03
2023-04-28T04:02:17.518Z,10.97
2023-04-28T04:04:46.307Z,10.83
2023-04-28T04:07:13.615Z,10.00
2023-04-28T04:09:40.310Z,10.17
2023-04-28T04:12:08.135Z,9.13
2023-04-28T04:14:34.814Z,10.00
2023-04-28T04:17:01.759Z,9.17
2023-04-28T04:19:33.088Z,8.80
2023-04-28T04:22:00.027Z,7.85
2023-04-28T04:24:26.786Z,8.17
2023-04-28T04:26:53.435Z,7.47
2023-04-28T04:29:20.491Z,7.07
2023-04-28T04:31:47.346Z,6.13
2023-04-28T04:34:14.233Z,7.67
2023-04-28T04:36:41.004Z,6.95
2023-04-28T04:39:07.617Z,6.75
2023-04-28T04:41:34.796Z,7.53
2023-04-28T04:44:01.399Z,7.78
2023-04-28T04:46:28.101Z,8.10
2023-04-28T04:48:54.803Z,8.25
2023-04-28T04:51:21.427Z,11.52
2023-04-28T04:53:48.033Z,9.52
2023-04-28T04:56:15.145Z,11.50
2023-04-28T04:58:44.757Z,11.73
2023-04-28T05:01:11.580Z,11.13
2023-04-28T05:03:38.308Z,12.60
2023-04-28T05:06:05.205Z,11.50
2023-04-28T05:08:31.945Z,11.77
2023-04-28T05:10:58.495Z,10.27
2023-04-28T05:13:25.248Z,8.40
2023-04-28T05:15:51.954Z,10.98
2023-04-28T05:18:18.885Z,11.48
2023-04-28T05:20:46.286Z,11.88
2023-04-28T05:23:13.034Z,11.95
2023-04-28T05:25:40.056Z,11.40
2023-04-28T05:28:09.134Z,10.60
2023-04-28T05:30:36.286Z,11.40
2023-04-28T05:33:02.957Z,9.95
2023-04-28T05:35:31.377Z,12.45
2023-04-28T05:37:59.300Z,9.75
2023-04-28T05:40:26.652Z,9.73
2023-04-28T05:42:53.867Z,9.43
2023-04-28T05:45:20.952Z,8.90
2023-04-28T05:47:47.808Z,11.65
2023-04-28T05:50:14.498Z,9.57
2023-04-28T05:52:41.085Z,9.93
2023-04-28T05:55:08.578Z,11.23
2023-04-28T05:57:49.241Z,8.73
2023-04-28T06:00:18.787Z,8.68
2023-04-28T06:02:47.941Z,10.73
2023-04-28T06:05:17.675Z,7.78
2023-04-28T06:07:45.151Z,7.40
2023-04-28T06:10:15.201Z,6.68
2023-04-28T06:12:41.883Z,6.05
2023-04-28T06:15:09.020Z,6.40
2023-04-28T06:17:35.739Z,6.65
2023-04-28T06:20:07.345Z,9.68
2023-04-28T06:22:33.974Z,6.60
2023-04-28T06:25:01.232Z,9.10
2023-04-28T06:27:27.897Z,6.32
2023-04-28T06:29:55.094Z,10.20
2023-04-28T06:32:21.710Z,7.40
2023-04-28T06:34:48.524Z,6.07
2023-04-28T06:37:15.210Z,6.70
2023-04-28T06:39:42.849Z,6.13
2023-04-28T06:42:09.534Z,5.95
2023-04-28T06:44:36.853Z,5.57
2023-04-28T06:47:03.818Z,6.65
2023-04-28T06:49:30.427Z,5.78
2023-04-28T06:51:57.206Z,6.15
2023-04-28T06:54:23.927Z,5.60
2023-04-28T06:56:50.671Z,5.93
2023-04-28T06:59:17.713Z,4.90
2023-04-28T07:01:44.350Z,4.93
2023-04-28T07:04:11.103Z,5.28
2023-04-28T07:06:37.932Z,4.78
2023-04-28T07:09:05.907Z,5.13
2023-04-28T07:11:33.683Z,4.57
2023-04-28T07:14:00.232Z,4.53
2023-04-28T07:16:27.289Z,4.43
2023-04-28T07:18:55.193Z,4.75
2023-04-28T07:21:22.318Z,10.73
2023-04-28T07:23:49.605Z,4.38
2023-04-28T07:26:19.188Z,5.13
2023-04-28T07:28:46.391Z,4.45
2023-04-28T07:31:13.220Z,4.40
2023-04-28T07:33:40.285Z,4.30
2023-04-28T07:36:07.654Z,4.88
2023-04-28T07:38:35.423Z,4.90
2023-04-28T07:41:05.127Z,4.25
2023-04-28T07:43:33.434Z,5.28
2023-04-28T07:46:00.147Z,6.20
2023-04-28T07:48:27.766Z,6.50
2023-04-28T07:50:54.764Z,5.32
2023-04-28T07:53:21.851Z,5.50
2023-04-28T07:55:48.915Z,5.10
2023-04-28T07:58:16.222Z,5.60
2023-04-28T08:00:43.282Z,5.55
2023-04-28T08:03:10.219Z,5.68
2023-04-28T08:05:38.886Z,5.82
2023-04-28T08:08:06.420Z,7.10
2023-04-28T08:10:33.372Z,5.90
2023-04-28T08:13:00.650Z,6.00
2023-04-28T08:15:27.983Z,6.35
2023-04-28T08:17:55.185Z,6.63
2023-04-28T08:20:24.646Z,6.10
2023-04-28T08:22:51.509Z,8.57
2023-04-28T08:25:19.022Z,7.15
2023-04-28T08:27:45.759Z,7.60
2023-04-28T08:30:12.790Z,7.15
2023-04-28T08:32:39.413Z,6.43
2023-04-28T08:35:06.745Z,10.52
2023-04-28T08:37:33.502Z,7.47
2023-04-28T08:40:02.430Z,10.57
2023-04-28T08:42:30.882Z,8.07
2023-04-28T08:45:00.154Z,6.63
2023-04-28T08:47:40.975Z,6.40
2023-04-28T08:50:08.958Z,8.00
2023-04-28T08:52:36.254Z,6.22
2023-04-28T08:55:10.008Z,6.05
2023-04-28T08:57:50.162Z,5.60
2023-04-28T09:00:17.349Z,5.45
2023-04-28T09:02:44.117Z,5.75
2023-04-28T09:05:12.289Z,5.55
2023-04-28T09:07:39.792Z,6.18
2023-04-28T09:10:17.816Z,5.68
2023-04-28T09:12:45.138Z,5.90
2023-04-28T09:15:12.245Z,5.50
2023-04-28T09:17:50.022Z,5.68
2023-04-28T09:20:28.194Z,6.47
2023-04-28T09:22:56.028Z,6.63
2023-04-28T09:25:23.998Z,5.85
2023-04-28T09:27:51.059Z,6.63
2023-04-28T09:30:17.741Z,7.53
2023-04-28T09:32:44.913Z,6.10
2023-04-28T09:35:12.073Z,5.10
2023-04-28T09:37:39.050Z,6.88
2023-04-28T09:40:06.228Z,5.90
2023-04-28T09:42:34.556Z,6.10
2023-04-28T09:45:03.538Z,8.35
2023-04-28T09:47:35.952Z,6.30
2023-04-28T09:50:07.327Z,6.05
2023-04-28T09:52:35.627Z,5.85
2023-04-28T09:55:03.452Z,6.70
2023-04-28T09:57:32.838Z,6.28
2023-04-28T10:00:00.450Z,5.28
2023-04-28T10:04:57.874Z,5.93
2023-04-28T10:07:24.605Z,6.63
2023-04-28T10:09:51.819Z,6.13
2023-04-28T10:12:18.468Z,5.65
2023-04-28T10:14:46.015Z,5.97
2023-04-28T10:17:17.001Z,6.40
2023-04-28T10:19:47.598Z,7.00
2023-04-28T10:22:23.003Z,6.50
2023-04-28T10:24:53.361Z,5.55
2023-04-28T10:27:20.434Z,5.37
2023-04-28T10:29:48.195Z,4.78
2023-04-28T10:32:19.686Z,6.15
2023-04-28T10:34:47.557Z,5.22
2023-04-28T10:37:19.526Z,5.90
2023-04-28T10:40:06.742Z,5.28
2023-04-28T10:42:59.425Z,5.50
2023-04-28T10:45:45.143Z,4.88
2023-04-28T10:48:12.460Z,5.45
2023-04-28T10:50:57.198Z,5.28
2023-04-28T10:53:44.309Z,5.85
2023-04-28T10:56:19.322Z,5.00
2023-04-28T10:58:47.009Z,5.95
2023-04-28T11:01:25.346Z,4.95
2023-04-28T11:04:01.593Z,6.30
2023-04-28T11:06:30.109Z,5.50
2023-04-28T11:08:58.164Z,6.18
2023-04-28T11:11:26.665Z,5.15
2023-04-28T11:14:13.901Z,4.72
2023-04-28T11:16:56.916Z,5.03
2023-04-28T11:19:28.003Z,5.20
2023-04-28T11:21:56.468Z,5.22
2023-04-28T11:24:26.071Z,4.00
2023-04-28T11:26:53.502Z,5.28
2023-04-28T11:29:31.294Z,5.47
2023-04-28T11:32:07.548Z,4.82
2023-04-28T11:34:34.930Z,5.30
2023-04-28T11:37:02.206Z,4.78
2023-04-28T11:39:30.415Z,5.32
2023-04-28T11:41:58.246Z,5.78
2023-04-28T11:44:27.364Z,5.10
2023-04-28T11:46:56.969Z,5.93
2023-04-28T11:49:28.499Z,5.00
2023-04-28T11:51:55.677Z,5.97
2023-04-28T11:54:26.820Z,5.40
2023-04-28T11:56:55.685Z,5.05
2023-04-28T11:59:29.578Z,4.70
2023-04-28T12:01:59.730Z,5.25
2023-04-28T12:04:31.021Z,5.15
2023-04-28T12:07:00.714Z,5.32
2023-04-28T12:09:27.535Z,6.57
2023-04-28T12:11:55.515Z,5.15
2023-04-28T12:14:22.580Z,5.63
2023-04-28T12:16:51.133Z,5.32
2023-04-28T12:19:20.175Z,4.68
2023-04-28T12:22:05.974Z,5.28
2023-04-28T12:24:32.975Z,6.20
2023-04-28T12:27:18.514Z,4.82
2023-04-28T12:29:46.947Z,5.22
2023-04-28T12:32:14.357Z,5.88
2023-04-28T12:34:42.190Z,5.95
2023-04-28T12:37:09.199Z,6.40
2023-04-28T12:39:39.557Z,7.07
2023-04-28T12:42:07.439Z,6.20
2023-04-28T12:44:38.306Z,6.43
2023-04-28T12:47:06.556Z,6.50
2023-04-28T12:49:34.134Z,6.40
2023-04-28T12:52:01.081Z,6.25
2023-04-28T12:54:28.218Z,6.22
2023-04-28T12:56:55.656Z,6.70
2023-04-28T12:59:23.569Z,6.50
2023-04-28T13:01:51.084Z,6.43
2023-04-28T13:04:18.923Z,5.95
2023-04-28T13:06:46.266Z,6.82
2023-04-28T13:09:14.127Z,6.57
2023-04-28T13:11:41.792Z,8.02
2023-04-28T13:14:09.711Z,7.43
2023-04-28T13:16:36.389Z,7.57
2023-04-28T13:19:04.304Z,9.65
2023-04-28T13:21:32.383Z,7.53
2023-04-28T13:23:59.102Z,16.60
2023-04-28T13:26:27.276Z,7.63
2023-04-28T13:28:54.392Z,8.82
2023-04-28T13:31:21.598Z,8.35
2023-04-28T13:33:48.843Z,7.07
2023-04-28T13:36:15.883Z,7.15
2023-04-28T13:38:44.392Z,6.85
2023-04-28T13:41:11.461Z,5.95
2023-04-28T13:43:38.693Z,6.28
2023-04-28T13:46:08.804Z,6.50
2023-04-28T13:48:36.404Z,7.78
2023-04-28T13:51:04.504Z,6.20
2023-04-28T13:53:31.861Z,5.85
2023-04-28T13:55:59.148Z,5.75
2023-04-28T13:58:29.889Z,6.35
2023-04-28T14:00:57.727Z,6.72
2023-04-28T14:03:25.400Z,6.60
2023-04-28T14:05:52.877Z,7.38
2023-04-28T14:08:20.798Z,6.47
2023-04-28T14:10:48.901Z,5.43
2023-04-28T14:13:15.737Z,5.07
2023-04-28T14:15:51.183Z,5.07
2023-04-28T14:18:25.113Z,6.03
2023-04-28T14:20:54.906Z,5.95
2023-04-28T14:23:22.521Z,5.32
2023-04-28T14:25:50.514Z,4.85
2023-04-28T14:28:18.060Z,4.88
2023-04-28T14:30:45.122Z,5.10
2023-04-28T14:33:12.297Z,5.68
2023-04-28T14:35:39.757Z,6.30
2023-04-28T14:38:06.728Z,5.45
2023-04-28T14:40:33.590Z,5.88
2023-04-28T14:43:00.182Z,5.35
2023-04-28T14:45:26.998Z,5.63
2023-04-28T14:47:54.145Z,5.13
2023-04-28T14:50:21.634Z,5.25
2023-04-28T14:52:48.573Z,6.18
2023-04-28T14:55:15.260Z,5.60
2023-04-28T14:57:42.557Z,5.75
2023-04-28T15:00:09.793Z,5.50
2023-04-28T15:02:36.827Z,6.80
2023-04-28T15:05:04.196Z,5.65
2023-04-28T15:07:33.626Z,5.35
2023-04-28T15:10:01.084Z,5.05
2023-04-28T15:12:30.868Z,5.63
2023-04-28T15:14:58.261Z,5.70
2023-04-28T15:17:25.506Z,5.57
2023-04-28T15:19:52.245Z,5.75
2023-04-28T15:22:19.352Z,6.05
2023-04-28T15:24:46.826Z,5.88
2023-04-28T15:27:14.383Z,6.20
2023-04-28T15:29:41.131Z,4.85
2023-04-28T15:32:07.776Z,5.80
2023-04-28T15:34:34.962Z,6.95
2023-04-28T15:37:03.177Z,5.50
2023-04-28T15:39:29.910Z,6.35
2023-04-28T15:41:56.956Z,6.40
2023-04-28T15:44:23.938Z,6.10
2023-04-28T15:46:52.873Z,5.97
2023-04-28T15:49:20.052Z,7.18
2023-04-28T15:51:47.185Z,10.38
2023-04-28T15:54:14.235Z,5.40
2023-04-28T15:56:40.968Z,11.65
2023-04-28T15:59:09.122Z,24.02
2023-04-28T16:01:36.297Z,5.20
2023-04-28T16:04:03.458Z,4.63
2023-04-28T16:06:31.515Z,12.95
2023-04-28T16:08:58.473Z,13.23
2023-04-28T16:11:25.566Z,5.47
2023-04-28T16:13:52.332Z,5.07
2023-04-28T16:16:21.571Z,6.63
2023-04-28T16:18:49.543Z,33.03
2023-04-28T16:21:18.601Z,6.25
2023-04-28T16:23:45.856Z,6.20
2023-04-28T16:26:12.608Z,5.22
2023-04-28T16:28:39.168Z,5.57
2023-04-28T16:31:05.789Z,20.15
2023-04-28T16:33:32.550Z,5.40
2023-04-28T16:36:00.037Z,5.07
2023-04-28T16:38:26.706Z,5.32
2023-04-28T16:40:53.824Z,14.70
2023-04-28T16:43:21.733Z,6.13
2023-04-28T16:45:49.386Z,8.48
2023-04-28T16:48:17.009Z,5.00
2023-04-28T16:50:44.495Z,5.78
2023-04-28T16:53:11.111Z,5.22
2023-04-28T16:55:37.690Z,5.53
2023-04-28T16:58:04.854Z,6.25
2023-04-28T17:00:31.828Z,5.82
2023-04-28T17:02:58.609Z,5.03
2023-04-28T17:05:25.741Z,5.75
2023-04-28T17:07:52.684Z,6.80
2023-04-28T17:10:19.420Z,5.47
2023-04-28T17:12:46.021Z,5.47
2023-04-28T17:15:17.660Z,6.55
2023-04-28T17:17:45.303Z,6.78
2023-04-28T17:20:16.548Z,8.30
2023-04-28T17:22:44.287Z,8.70
2023-04-28T17:25:11.795Z,17.25
2023-04-28T17:27:39.054Z,15.80
2023-04-28T17:30:09.114Z,10.70
2023-04-28T17:32:37.619Z,7.22
2023-04-28T17:35:05.384Z,5.97
2023-04-28T17:37:33.452Z,5.22
2023-04-28T17:40:01.203Z,6.75
2023-04-28T17:42:28.954Z,5.10
2023-04-28T17:44:56.073Z,6.15
2023-04-28T17:47:22.688Z,5.38
2023-04-28T17:49:49.722Z,5.85
2023-04-28T17:52:17.031Z,5.63
2023-04-28T17:54:44.037Z,6.40
2023-04-28T17:57:11.296Z,6.65
2023-04-28T17:59:38.673Z,7.07
2023-04-28T18:02:06.097Z,8.13
2023-04-28T18:04:32.910Z,7.50
2023-04-28T18:06:59.513Z,8.05
2023-04-28T18:09:27.315Z,7.40
2023-04-28T18:11:55.891Z,6.95
2023-04-28T18:14:22.655Z,6.70
2023-04-28T18:16:49.371Z,6.80
2023-04-28T18:19:16.586Z,7.57
2023-04-28T18:21:43.248Z,7.32
2023-04-28T18:24:09.865Z,8.75
2023-04-28T18:26:36.941Z,8.27
2023-04-28T18:29:03.609Z,10.25
2023-04-28T18:31:30.496Z,11.95
2023-04-28T18:33:57.296Z,9.98
2023-04-28T18:36:23.887Z,9.43
2023-04-28T18:38:50.529Z,10.60
2023-04-28T18:41:17.918Z,8.43
2023-04-28T18:43:44.822Z,8.73
2023-04-28T18:46:11.657Z,7.53
2023-04-28T18:48:39.248Z,7.07
2023-04-28T18:51:06.032Z,8.07
2023-04-28T18:53:33.048Z,7.97
2023-04-28T18:56:00.072Z,7.88
2023-04-28T18:58:27.695Z,8.57
2023-04-28T19:00:54.576Z,9.93
2023-04-28T19:03:21.351Z,8.27
2023-04-28T19:05:51.749Z,9.40
2023-04-28T19:08:18.832Z,9.27
2023-04-28T19:10:45.704Z,8.63
2023-04-28T19:13:13.044Z,9.43
2023-04-28T19:15:39.654Z,11.10
2023-04-28T19:18:06.925Z,11.07
2023-04-28T19:20:33.783Z,11.68
2023-04-28T19:23:03.943Z,11.80
2023-04-28T19:25:33.856Z,10.18
2023-04-28T19:28:00.556Z,9.35
2023-04-28T19:30:27.615Z,9.23
2023-04-28T19:32:54.571Z,11.15
2023-04-28T19:35:21.304Z,10.43
2023-04-28T19:37:50.052Z,10.25
2023-04-28T19:40:17.768Z,11.23
2023-04-28T19:42:44.906Z,10.50
2023-04-28T19:45:11.684Z,11.13
2023-04-28T19:47:39.020Z,12.98
2023-04-28T19:50:06.421Z,11.70
2023-04-28T19:52:33.376Z,11.27
2023-04-28T19:55:01.134Z,12.18
2023-04-28T19:57:28.102Z,12.55
2023-04-28T19:59:55.360Z,10.85
2023-04-28T20:02:22.914Z,9.43
2023-04-28T20:04:50.037Z,12.73
2023-04-28T20:07:17.202Z,11.02
2023-04-28T20:09:45.514Z,10.85
2023-04-28T20:12:13.552Z,11.02
2023-04-28T20:14:40.671Z,11.75
2023-04-28T20:17:09.460Z,11.07
2023-04-28T20:19:37.517Z,12.02
2023-04-28T20:22:08.180Z,10.45
2023-04-28T20:24:36.279Z,11.30
2023-04-28T20:27:04.452Z,10.48
2023-04-28T20:29:34.802Z,10.13
2023-04-28T20:32:03.009Z,10.23
2023-04-28T20:34:31.222Z,9.90
2023-04-28T20:37:00.088Z,9.23
2023-04-28T20:39:27.556Z,8.38
2023-04-28T20:41:54.925Z,7.60
2023-04-28T20:44:22.118Z,7.32
2023-04-28T20:46:49.352Z,7.70
2023-04-28T20:49:16.356Z,7.97
2023-04-28T20:51:45.905Z,7.57
2023-04-28T20:54:13.519Z,8.10
2023-04-28T20:56:42.530Z,6.85
2023-04-28T20:59:09.611Z,6.68
2023-04-28T21:01:36.936Z,8.95
2023-04-28T21:04:04.100Z,7.43
2023-04-28T21:06:31.166Z,6.72
2023-04-28T21:08:58.419Z,6.50
2023-04-28T21:11:25.713Z,6.75
2023-04-28T21:13:53.063Z,6.90
2023-04-28T21:16:21.651Z,7.53
2023-04-28T21:18:49.888Z,7.35
2023-04-28T21:21:17.268Z,8.13
2023-04-28T21:23:44.697Z,8.32
2023-04-28T21:26:11.744Z,8.02
2023-04-28T21:28:40.705Z,8.43
2023-04-28T21:31:07.918Z,7.90
2023-04-28T21:33:35.127Z,8.35
2023-04-28T21:36:07.900Z,6.88
2023-04-28T21:38:35.474Z,7.53
2023-04-28T21:41:02.390Z,6.60
2023-04-28T21:43:29.250Z,7.00
2023-04-28T21:45:56.029Z,7.13
2023-04-28T21:48:23.157Z,7.13
2023-04-28T21:50:50.497Z,6.63
2023-04-28T21:53:17.408Z,6.88
2023-04-28T21:55:45.131Z,7.70
2023-04-28T21:58:12.457Z,6.88
2023-04-28T22:00:40.199Z,7.38
2023-04-28T22:03:07.405Z,6.85
2023-04-28T22:05:34.497Z,7.60
2023-04-28T22:08:01.953Z,8.80
2023-04-28T22:10:31.318Z,9.23
2023-04-28T22:13:00.152Z,7.50
2023-04-28T22:15:27.709Z,8.75
2023-04-28T22:17:54.579Z,6.40
2023-04-28T22:20:21.840Z,6.50
2023-04-28T22:22:48.959Z,7.05
2023-04-28T22:25:16.051Z,6.70
2023-04-28T22:27:42.814Z,6.60
2023-04-28T22:30:09.829Z,6.30
2023-04-28T22:32:37.001Z,7.85
2023-04-28T22:35:04.065Z,5.90
2023-04-28T22:37:31.579Z,6.05
2023-04-28T22:40:01.370Z,5.82
2023-04-28T22:42:29.123Z,5.88
2023-04-28T22:44:56.252Z,6.40
2023-04-28T22:47:23.742Z,6.43
2023-04-28T22:49:51.161Z,6.53
2023-04-28T22:52:20.980Z,6.55
2023-04-28T22:54:49.464Z,5.53
2023-04-28T22:57:17.081Z,5.32
2023-04-28T22:59:44.783Z,6.22
2023-04-28T23:02:14.077Z,6.75
2023-04-28T23:04:41.669Z,5.63
2023-04-28T23:07:08.920Z,6.35
2023-04-28T23:09:37.789Z,6.38
2023-04-28T23:12:05.120Z,6.03
2023-04-28T23:14:32.940Z,5.60
2023-04-28T23:17:00.264Z,6.45
2023-04-28T23:19:27.079Z,6.53
2023-04-28T23:21:55.006Z,5.80
2023-04-28T23:24:22.108Z,6.57
2023-04-28T23:26:49.246Z,6.32
2023-04-28T23:29:16.826Z,6.00
2023-04-28T23:31:43.546Z,5.95
2023-04-28T23:34:10.740Z,5.93
2023-04-28T23:36:38.114Z,5.78
2023-04-28T23:39:05.175Z,5.45
2023-04-28T23:41:32.302Z,6.60
2023-04-28T23:43:58.892Z,5.15
2023-04-28T23:46:25.544Z,5.75
2023-04-28T23:48:52.637Z,6.45
2023-04-28T23:51:19.738Z,5.68
2023-04-28T23:53:46.901Z,7.30
2023-04-28T23:56:14.343Z,5.90
2023-04-28T23:58:42.338Z,5.40
